WetterOnline ( http://www.wetteronline.de )

Wetter aktuell Sankt Aldegund

Aktuelles Wetter: Deuselbach (483m)

6-stündlich | Neueste Meldungen
Ortszeit Temperatur Wetter
Fr, 20.07. 2:00 19.1° C wolkig
Do, 19.07. 20:00 24.7° C leicht bewölkt
Do, 19.07. 14:00 25.7° C wolkenlos
Do, 19.07. 8:00 18.8° C wolkenlos
Do, 19.07. 2:00 15.7° C wolkig
Mi, 18.07. 20:00 23.4° C wolkenlos
Mi, 18.07. 14:00 22.5° C wolkig
Mi, 18.07. 8:00 16.4° C fast wolkenlos
Ortszeit Temperatur Wetter
Fr, 20.07. 5:00 17.5° C bewölkt
Fr, 20.07. 4:50 17.5° C bewölkt
Fr, 20.07. 4:40 17.8° C wolkig
Fr, 20.07. 4:30 18.0° C wolkig
Fr, 20.07. 4:20 18.0° C wolkig
Fr, 20.07. 4:10 18.3° C wolkig
Fr, 20.07. 4:00 18.5° C wolkig
Fr, 20.07. 3:30 19.3° C wolkig
Fr, 20.07. 3:00 19.4° C wolkig
Fr, 20.07. 2:30 19.3° C wolkig
Fr, 20.07. 2:00 19.1° C wolkig
Ortszeit Relative Feuchte Sichtweite
Fr, 20.07. 2:00 51% 45 km
Do, 19.07. 20:00 37% 50 km
Do, 19.07. 14:00 36% 30 km
Do, 19.07. 8:00 55% 35 km
Do, 19.07. 2:00 61% 40 km
Mi, 18.07. 20:00 38% 65 km
Mi, 18.07. 14:00 40% 45 km
Mi, 18.07. 8:00 70% 45 km
Ortszeit Relative Feuchte Sichtweite
Fr, 20.07. 5:00 53% 70 km
Fr, 20.07. 4:50 53% -
Fr, 20.07. 4:40 52% -
Fr, 20.07. 4:30 51% 55 km
Fr, 20.07. 4:20 51% -
Fr, 20.07. 4:10 50% -
Fr, 20.07. 4:00 49% 55 km
Fr, 20.07. 3:30 46% 60 km
Fr, 20.07. 3:00 45% 60 km
Fr, 20.07. 2:30 47% 50 km
Fr, 20.07. 2:00 51% 45 km
Ortszeit Niederschlagsmenge Niederschlagsart
Fr, 20.07. 2:00 0.0 l/m2 in 6 Std. -
Do, 19.07. 20:00 0.0 l/m2 in 12 Std. -
Do, 19.07. 14:00 0.0 l/m2 in 6 Std. -
Do, 19.07. 8:00 0.0 l/m2 in 12 Std. -
Do, 19.07. 2:00 0.0 l/m2 in 6 Std. -
Mi, 18.07. 20:00 0.0 l/m2 in 12 Std. -
Mi, 18.07. 14:00 0.0 l/m2 in 6 Std. -
Mi, 18.07. 8:00 0.0 l/m2 in 12 Std. -
Ortszeit Niederschlagsmenge Niederschlagsart
Fr, 20.07. 5:00 0.0 l/m2 in 1 Std. -
Fr, 20.07. 4:50 keine Meldung -
Fr, 20.07. 4:40 keine Meldung -
Fr, 20.07. 4:30 0.0 l/m2 in 1 Std. -
Fr, 20.07. 4:20 keine Meldung -
Fr, 20.07. 4:10 keine Meldung -
Fr, 20.07. 4:00 0.0 l/m2 in 1 Std. -
Fr, 20.07. 3:30 0.0 l/m2 in 1 Std. -
Fr, 20.07. 3:00 0.0 l/m2 in 1 Std. -
Fr, 20.07. 2:30 0.0 l/m2 in 1 Std. -
Fr, 20.07. 2:00 0.0 l/m2 in 1 Std. -
Ortszeit Stärke Spitze Richtung
km/h Bft. km/h Grad Sektor
Fr, 20.07. 2:00 11 2 18 130° SO
Do, 19.07. 20:00 9 2 24 40° NO
Do, 19.07. 14:00 11 2 22 80° O
Do, 19.07. 8:00 6 1 19 40° NO
Do, 19.07. 2:00 6 1 17 120° SO
Mi, 18.07. 20:00 11 2 29 300° NW
Mi, 18.07. 14:00 22 4 36 330° NW
Mi, 18.07. 8:00 4 1 7 50° NO
Ortszeit Stärke Spitze Richtung
km/h Bft. km/h Grad Sektor
Fr, 20.07. 5:00 7 2 14 130° SO
Fr, 20.07. 4:50 7 2 - 130° SO
Fr, 20.07. 4:40 7 2 - 120° SO
Fr, 20.07. 4:30 9 2 15 100° O
Fr, 20.07. 4:20 9 2 - 100° O
Fr, 20.07. 4:10 9 2 - 130° SO
Fr, 20.07. 4:00 11 2 22 130° SO
Fr, 20.07. 3:30 15 3 20 140° SO
Fr, 20.07. 3:00 17 3 22 140° SO
Fr, 20.07. 2:30 15 3 22 130° SO
Fr, 20.07. 2:00 11 2 18 130° SO
Ortszeit Untergrenze Bedeckung Gattung
total tief tief mittel hoch
Fr, 20.07. 2:00 6300 m 8/8 1/8 - - -
Do, 19.07. 20:00 9000 m 8/8 0/8 - - -
Do, 19.07. 14:00 - 0/8 0/8 - - -
Do, 19.07. 8:00 - 0/8 0/8 - - -
Do, 19.07. 2:00 9000 m 8/8 0/8 - - -
Mi, 18.07. 20:00 - 0/8 0/8 - - -
Mi, 18.07. 14:00 1800 m 6/8 - - - -
Mi, 18.07. 8:00 2100 m 1/8 1/8 - - -
Ortszeit Bedeckungsgrad in Achtel und Wolkenuntergrenze
Fr, 20.07. 5:00 5(6900m) 7(8700m) 8(9000m)
Fr, 20.07. 4:50 5(6900m) 7(8700m) 8(9000m)
Fr, 20.07. 4:40 1(7200m) 7(8700m) 8(9000m)
Fr, 20.07. 4:30 3(8100m) 8(8700m) 8(9000m)
Fr, 20.07. 4:20 3(8100m) 8(8700m) 8(9000m)
Fr, 20.07. 4:10 8(8700m) 8(10500m)
Fr, 20.07. 4:00 8(8700m) 8(10500m)
Fr, 20.07. 3:30 8(9000m) 8(10500m)
Fr, 20.07. 3:00 8(9000m) 8(10500m)
Fr, 20.07. 2:30 1(6300m) 4(9000m) 8(10500m)
Fr, 20.07. 2:00 1(6300m) 8(9000m) 8(10500m)
Ortszeit Luftdruck NN (hPa) Tendenz (hPa in 3 Std.)
Fr, 20.07. 2:00 1015 - 0,4
Do, 19.07. 20:00 1014 - 0,8
Do, 19.07. 14:00 1016 - 0,6
Do, 19.07. 8:00 1018 + 0,1
Do, 19.07. 2:00 1019 + 0,3
Mi, 18.07. 20:00 1016 - 0,7
Mi, 18.07. 14:00 1017 - 0,6
Mi, 18.07. 8:00 1019 + 0,3
Ortszeit Luftdruck NN (hPa) Tendenz (hPa in 3 Std.)
Fr, 20.07. 5:00 1015 - 0,9
Fr, 20.07. 4:50 1015 keine Meldung
Fr, 20.07. 4:40 1015 keine Meldung
Fr, 20.07. 4:30 1015 - 1,0
Fr, 20.07. 4:20 1015 keine Meldung
Fr, 20.07. 4:10 1015 keine Meldung
Fr, 20.07. 4:00 1015 - 1,1
Fr, 20.07. 3:30 1015 - 1,0
Fr, 20.07. 3:00 1015 - 0,9
Fr, 20.07. 2:30 1015 - 0,6
Fr, 20.07. 2:00 1015 - 0,4
Ortszeit Schneehöhe (cm)
Fr, 20.07. 2:00 -
Do, 19.07. 20:00 -
Do, 19.07. 14:00 -
Do, 19.07. 8:00 -
Do, 19.07. 2:00 -
Mi, 18.07. 20:00 -
Mi, 18.07. 14:00 -
Mi, 18.07. 8:00 -
Ortszeit Schneehöhe (cm)
Fr, 20.07. 5:00 -
Fr, 20.07. 4:50 -
Fr, 20.07. 4:40 -
Fr, 20.07. 4:30 -
Fr, 20.07. 4:20 -
Fr, 20.07. 4:10 -
Fr, 20.07. 4:00 -
Fr, 20.07. 3:30 -
Fr, 20.07. 3:00 -
Fr, 20.07. 2:30 -
Fr, 20.07. 2:00 -
Link zu dieser Seite / Seite empfehlen

Das Wetter in ...